createdAt,value
2019-06-20T00:02:20.972Z,6.53
2019-06-20T00:04:53.202Z,7.00
2019-06-20T00:07:25.436Z,7.15
2019-06-20T00:09:57.582Z,6.20
2019-06-20T00:12:29.886Z,6.07
2019-06-20T00:15:02.024Z,5.40
2019-06-20T00:17:35.325Z,5.90
2019-06-20T00:20:07.659Z,5.45
2019-06-20T00:22:39.877Z,5.13
2019-06-20T00:25:12.244Z,5.33
2019-06-20T00:27:44.483Z,5.00
2019-06-20T00:30:17.086Z,6.07
2019-06-20T00:32:49.274Z,7.35
2019-06-20T00:35:21.517Z,6.58
2019-06-20T00:37:53.774Z,7.33
2019-06-20T00:40:26.044Z,5.57
2019-06-20T00:42:58.301Z,5.50
2019-06-20T00:45:30.487Z,6.00
2019-06-20T00:48:02.854Z,5.80
2019-06-20T00:50:35.120Z,5.60
2019-06-20T00:53:07.394Z,6.40
2019-06-20T00:55:40.692Z,5.78
2019-06-20T00:58:12.958Z,7.12
2019-06-20T01:00:45.226Z,7.40
2019-06-20T01:03:17.742Z,8.17
2019-06-20T01:05:50.078Z,7.78
2019-06-20T01:08:22.610Z,8.33
2019-06-20T01:10:54.944Z,7.90
2019-06-20T01:13:33.575Z,8.23
2019-06-20T01:16:02.392Z,7.20
2019-06-20T01:18:34.700Z,6.40
2019-06-20T01:21:08.680Z,7.57
2019-06-20T01:23:40.996Z,6.47
2019-06-20T01:26:13.193Z,6.62
2019-06-20T01:28:45.322Z,5.40
2019-06-20T01:31:17.904Z,5.35
2019-06-20T01:33:50.003Z,6.08
2019-06-20T01:36:22.270Z,5.72
2019-06-20T01:38:54.510Z,6.20
2019-06-20T01:41:26.886Z,6.37
2019-06-20T01:43:59.164Z,6.05
2019-06-20T01:46:31.618Z,6.30
2019-06-20T01:49:04.019Z,5.97
2019-06-20T01:51:36.458Z,6.42
2019-06-20T01:54:08.889Z,7.65
2019-06-20T01:56:41.055Z,7.15
2019-06-20T01:59:13.289Z,7.92
2019-06-20T02:01:45.590Z,7.27
2019-06-20T02:04:17.859Z,6.70
2019-06-20T02:06:50.275Z,7.07
2019-06-20T02:09:22.578Z,6.40
2019-06-20T02:11:54.756Z,6.15
2019-06-20T02:14:26.948Z,6.07
2019-06-20T02:16:59.196Z,6.12
2019-06-20T02:19:31.407Z,5.77
2019-06-20T02:22:03.611Z,5.67
2019-06-20T02:24:35.822Z,6.27
2019-06-20T02:27:07.995Z,5.17
2019-06-20T02:29:41.678Z,5.17
2019-06-20T02:32:13.951Z,4.75
2019-06-20T02:34:46.062Z,5.13
2019-06-20T02:37:18.270Z,5.35
2019-06-20T02:39:50.456Z,5.85
2019-06-20T02:42:22.709Z,6.23
2019-06-20T02:44:54.834Z,9.35
2019-06-20T02:47:27.277Z,8.30
2019-06-20T02:49:59.506Z,6.30
2019-06-20T02:52:32.813Z,6.28
2019-06-20T02:55:05.581Z,6.83
2019-06-20T02:57:37.902Z,7.95
2019-06-20T03:00:11.034Z,7.28
2019-06-20T03:02:43.243Z,6.70
2019-06-20T03:05:15.701Z,6.58
2019-06-20T03:07:49.012Z,7.97
2019-06-20T03:10:21.039Z,6.87
2019-06-20T03:12:53.325Z,7.35
2019-06-20T03:15:25.596Z,7.67
2019-06-20T03:17:57.825Z,7.50
2019-06-20T03:20:30.176Z,6.80
2019-06-20T03:23:02.424Z,5.20
2019-06-20T03:25:35.595Z,4.22
2019-06-20T03:28:07.673Z,4.73
2019-06-20T03:30:39.945Z,5.47
2019-06-20T03:33:12.162Z,6.35
2019-06-20T03:35:44.382Z,5.87
2019-06-20T03:38:16.763Z,3.77
2019-06-20T03:40:49.053Z,4.40
2019-06-20T03:43:22.316Z,3.52
2019-06-20T03:45:54.513Z,4.42
2019-06-20T03:48:26.638Z,5.80
2019-06-20T03:50:58.780Z,4.37
2019-06-20T03:53:30.782Z,5.08
2019-06-20T03:56:02.979Z,5.62
2019-06-20T03:58:35.440Z,6.58
2019-06-20T04:01:07.647Z,4.97
2019-06-20T04:03:40.295Z,4.62
2019-06-20T04:06:12.410Z,4.13
2019-06-20T04:08:44.637Z,3.75
2019-06-20T04:11:16.984Z,3.90
2019-06-20T04:13:49.157Z,4.07
2019-06-20T04:16:21.277Z,3.75
2019-06-20T04:18:53.222Z,4.08
2019-06-20T04:21:25.304Z,3.62
2019-06-20T04:23:57.370Z,4.30
2019-06-20T04:26:29.674Z,3.97
2019-06-20T04:29:01.887Z,4.10
2019-06-20T04:31:33.996Z,3.75
2019-06-20T04:34:06.308Z,3.40
2019-06-20T04:36:38.482Z,4.40
2019-06-20T04:39:19.090Z,3.85
2019-06-20T04:41:44.747Z,5.70
2019-06-20T04:44:16.748Z,5.33
2019-06-20T04:46:50.760Z,5.65
2019-06-20T04:49:23.157Z,5.33
2019-06-20T04:51:55.453Z,6.53
2019-06-20T04:54:27.619Z,5.97
2019-06-20T04:56:59.825Z,6.33
2019-06-20T04:59:32.175Z,6.53
2019-06-20T05:02:04.533Z,5.10
2019-06-20T05:04:36.540Z,5.03
2019-06-20T05:07:14.572Z,5.27
2019-06-20T05:09:46.880Z,4.72
2019-06-20T05:12:18.949Z,5.33
2019-06-20T05:14:51.161Z,4.90
2019-06-20T05:17:23.363Z,6.07
2019-06-20T05:19:55.509Z,5.15
2019-06-20T05:22:27.741Z,5.90
2019-06-20T05:25:00.037Z,8.80
2019-06-20T05:27:32.201Z,9.68
2019-06-20T05:30:10.229Z,8.30
2019-06-20T05:32:42.379Z,7.83
2019-06-20T05:35:14.602Z,5.93
2019-06-20T05:37:46.991Z,6.65
2019-06-20T05:40:19.259Z,5.43
2019-06-20T05:42:51.444Z,5.75
2019-06-20T05:45:23.681Z,5.20
2019-06-20T05:47:55.756Z,4.85
2019-06-20T05:50:28.142Z,4.90
2019-06-20T05:53:02.013Z,4.85
2019-06-20T05:55:34.091Z,4.53
2019-06-20T05:58:06.473Z,4.92
2019-06-20T06:00:38.682Z,4.70
2019-06-20T06:03:13.683Z,4.77
2019-06-20T06:05:44.814Z,4.58
2019-06-20T06:08:16.912Z,4.93
2019-06-20T06:10:48.960Z,5.42
2019-06-20T06:13:20.978Z,7.57
2019-06-20T06:15:53.229Z,4.77
2019-06-20T06:18:25.450Z,5.03
2019-06-20T06:20:57.704Z,4.95
2019-06-20T06:23:29.783Z,4.72
2019-06-20T06:26:02.086Z,4.15
2019-06-20T06:28:34.095Z,5.33
2019-06-20T06:31:06.302Z,4.40
2019-06-20T06:33:38.513Z,4.72
2019-06-20T06:36:10.739Z,4.13
2019-06-20T06:38:42.845Z,4.33
2019-06-20T06:41:15.021Z,3.00
2019-06-20T06:43:47.228Z,3.30
2019-06-20T06:46:19.437Z,3.47
2019-06-20T06:48:51.490Z,3.47
2019-06-20T06:51:23.767Z,3.58
2019-06-20T06:53:55.748Z,3.37
2019-06-20T06:56:28.014Z,3.35
2019-06-20T06:59:00.138Z,3.77
2019-06-20T07:01:32.232Z,3.30
2019-06-20T07:04:04.497Z,3.60
2019-06-20T07:06:36.549Z,3.90
2019-06-20T07:09:10.021Z,2.80
2019-06-20T07:11:41.939Z,3.10
2019-06-20T07:14:14.088Z,3.30
2019-06-20T07:16:59.440Z,3.27
2019-06-20T07:19:19.958Z,3.08
2019-06-20T07:21:51.983Z,2.80
2019-06-20T07:24:24.918Z,3.20
2019-06-20T07:26:58.167Z,3.05
2019-06-20T07:29:30.183Z,3.30
2019-06-20T07:32:02.229Z,2.80
2019-06-20T07:34:34.299Z,2.70
2019-06-20T07:37:06.359Z,3.00
2019-06-20T07:39:38.348Z,3.57
2019-06-20T07:42:10.587Z,3.55
2019-06-20T07:44:43.061Z,2.90
2019-06-20T07:47:17.871Z,3.40
2019-06-20T07:49:49.004Z,2.75
2019-06-20T07:52:22.373Z,2.72
2019-06-20T07:54:54.429Z,2.20
2019-06-20T07:57:26.848Z,3.13
2019-06-20T08:02:30.636Z,2.80
2019-06-20T08:05:03.180Z,2.67
2019-06-20T08:07:35.561Z,2.20
2019-06-20T08:10:10.829Z,2.52
2019-06-20T08:12:43.005Z,2.60
2019-06-20T08:15:16.211Z,2.37
2019-06-20T08:17:48.292Z,2.70
2019-06-20T08:20:21.191Z,2.50
2019-06-20T08:22:54.247Z,2.10
2019-06-20T08:25:26.255Z,2.00
2019-06-20T08:27:59.445Z,2.08
2019-06-20T08:30:35.046Z,2.87
2019-06-20T08:33:11.994Z,2.37
2019-06-20T08:35:43.223Z,2.90
2019-06-20T08:38:15.586Z,2.60
2019-06-20T08:40:47.688Z,2.30
2019-06-20T08:43:19.739Z,2.30
2019-06-20T08:45:52.929Z,2.58
2019-06-20T08:48:25.512Z,2.33
2019-06-20T08:50:58.537Z,2.55
2019-06-20T08:53:30.901Z,1.90
2019-06-20T08:56:03.274Z,1.50
2019-06-20T08:58:35.385Z,1.72
2019-06-20T09:03:39.724Z,1.70
2019-06-20T09:06:11.804Z,1.53
2019-06-20T09:08:43.979Z,1.95
2019-06-20T09:11:16.208Z,3.05
2019-06-20T09:13:48.412Z,1.50
2019-06-20T09:16:24.599Z,1.92
2019-06-20T09:18:55.049Z,1.62
2019-06-20T09:21:28.449Z,1.77
2019-06-20T09:24:00.526Z,1.37
2019-06-20T09:26:32.676Z,1.37
2019-06-20T09:29:04.717Z,1.30
2019-06-20T09:31:36.848Z,1.20
2019-06-20T09:34:09.058Z,1.72
2019-06-20T09:36:41.128Z,1.75
2019-06-20T09:39:13.150Z,1.90
2019-06-20T09:41:45.184Z,2.00
2019-06-20T09:44:17.172Z,1.57
2019-06-20T09:46:49.813Z,1.50
2019-06-20T09:49:24.074Z,1.37
2019-06-20T09:51:56.647Z,1.80
2019-06-20T09:56:59.918Z,1.37
2019-06-20T09:59:31.941Z,1.85
2019-06-20T10:02:06.437Z,2.00
2019-06-20T10:04:38.595Z,1.85
2019-06-20T10:10:18.550Z,1.67
2019-06-20T10:12:51.773Z,1.55
2019-06-20T10:15:26.548Z,1.82
2019-06-20T10:17:58.821Z,1.30
2019-06-20T10:20:30.856Z,1.95
2019-06-20T10:23:03.219Z,1.60
2019-06-20T10:25:35.517Z,2.02
2019-06-20T10:28:07.869Z,1.60
2019-06-20T10:30:40.145Z,2.08
2019-06-20T10:33:12.405Z,1.95
2019-06-20T10:35:45.835Z,2.00
2019-06-20T10:38:18.401Z,2.20
2019-06-20T10:40:51.989Z,2.17
2019-06-20T10:43:24.158Z,2.30
2019-06-20T10:45:57.408Z,1.70
2019-06-20T10:48:29.402Z,2.10
2019-06-20T10:51:19.662Z,1.62
2019-06-20T10:53:53.404Z,1.80
2019-06-20T10:56:25.640Z,2.12
2019-06-20T10:58:57.734Z,1.35
2019-06-20T11:01:29.810Z,1.57
2019-06-20T11:04:02.101Z,2.67
2019-06-20T11:06:34.252Z,1.92
2019-06-20T11:09:08.656Z,1.90
2019-06-20T11:11:41.756Z,2.20
2019-06-20T11:14:14.803Z,2.98
2019-06-20T11:16:47.206Z,1.60
2019-06-20T11:19:19.491Z,1.80
2019-06-20T11:21:51.574Z,2.58
2019-06-20T11:24:23.623Z,2.50
2019-06-20T11:26:55.695Z,4.30
2019-06-20T11:29:28.310Z,2.37
2019-06-20T11:32:00.758Z,1.57
2019-06-20T11:34:33.978Z,1.45
2019-06-20T11:37:06.076Z,1.55
2019-06-20T11:39:38.917Z,1.52
2019-06-20T11:42:11.064Z,2.47
2019-06-20T11:44:43.165Z,2.10
2019-06-20T11:47:15.381Z,2.00
2019-06-20T11:49:47.576Z,4.28
2019-06-20T11:52:19.909Z,1.80
2019-06-20T11:54:52.004Z,2.00
2019-06-20T11:57:24.481Z,1.92
2019-06-20T11:59:56.646Z,2.30
2019-06-20T12:02:28.945Z,1.77
2019-06-20T12:05:01.196Z,2.00
2019-06-20T12:07:33.746Z,2.65
2019-06-20T12:10:09.012Z,1.50
2019-06-20T12:12:42.459Z,1.80
2019-06-20T12:15:15.726Z,2.22
2019-06-20T12:17:49.150Z,1.87
2019-06-20T12:20:21.856Z,4.22
2019-06-20T12:22:54.065Z,2.30
2019-06-20T12:25:26.408Z,2.70
2019-06-20T12:27:58.660Z,1.60
2019-06-20T12:30:30.897Z,2.90
2019-06-20T12:33:02.909Z,4.55
2019-06-20T12:35:35.091Z,2.67
2019-06-20T12:38:07.162Z,2.17
2019-06-20T12:40:40.886Z,2.75
2019-06-20T12:43:13.260Z,1.65
2019-06-20T12:45:45.414Z,1.42
2019-06-20T12:48:17.315Z,1.13
2019-06-20T12:50:49.634Z,1.87
2019-06-20T12:53:21.639Z,1.20
2019-06-20T12:55:53.754Z,2.40
2019-06-20T12:58:26.977Z,1.90
2019-06-20T13:00:59.379Z,1.60
2019-06-20T13:03:31.374Z,1.67
2019-06-20T13:06:03.551Z,1.70
2019-06-20T13:08:35.634Z,1.17
2019-06-20T13:11:07.681Z,1.20
2019-06-20T13:13:40.532Z,1.47
2019-06-20T13:16:12.741Z,1.55
2019-06-20T13:18:46.245Z,2.10
2019-06-20T13:21:19.109Z,2.50
2019-06-20T13:23:51.622Z,1.25
2019-06-20T13:26:23.658Z,1.70
2019-06-20T13:29:03.705Z,1.20
2019-06-20T13:31:29.680Z,2.60
2019-06-20T13:34:02.112Z,1.60
2019-06-20T13:36:34.379Z,1.10
2019-06-20T13:39:08.065Z,0.98
2019-06-20T13:41:41.150Z,1.70
2019-06-20T13:44:14.397Z,1.20
2019-06-20T13:46:48.902Z,1.90
2019-06-20T13:49:20.998Z,2.15
2019-06-20T13:51:53.139Z,2.30
2019-06-20T13:56:56.874Z,1.32
2019-06-20T13:59:28.925Z,1.27
2019-06-20T14:02:06.769Z,1.30
2019-06-20T14:04:34.688Z,1.98
2019-06-20T14:07:06.927Z,1.80
2019-06-20T14:09:39.149Z,1.67
2019-06-20T14:12:12.855Z,2.10
2019-06-20T14:14:45.787Z,1.90
2019-06-20T14:17:18.023Z,2.15
2019-06-20T14:19:50.273Z,1.75
2019-06-20T14:22:22.398Z,2.25
2019-06-20T14:24:55.492Z,3.55
2019-06-20T14:27:27.925Z,4.25
2019-06-20T14:30:00.104Z,4.05
2019-06-20T14:32:32.230Z,2.80
2019-06-20T14:35:05.386Z,2.55
2019-06-20T14:40:09.250Z,2.33
2019-06-20T14:45:12.508Z,1.80
2019-06-20T14:47:44.679Z,2.25
2019-06-20T14:50:17.795Z,1.70
2019-06-20T14:52:51.945Z,1.77
2019-06-20T14:55:23.928Z,1.57
2019-06-20T14:57:56.091Z,1.70
2019-06-20T15:00:30.139Z,1.80
2019-06-20T15:03:02.179Z,1.75
2019-06-20T15:05:34.992Z,1.70
2019-06-20T15:10:39.179Z,1.80
2019-06-20T15:13:11.311Z,2.27
2019-06-20T15:15:45.910Z,1.62
2019-06-20T15:18:17.584Z,1.57
2019-06-20T15:20:50.265Z,1.35
2019-06-20T15:25:54.236Z,1.80
2019-06-20T15:28:26.517Z,1.70
2019-06-20T15:30:58.501Z,1.90
2019-06-20T15:33:30.501Z,2.10
2019-06-20T15:36:02.577Z,1.90
2019-06-20T15:38:34.559Z,1.70
2019-06-20T15:41:06.750Z,1.80
2019-06-20T15:43:38.943Z,2.12
2019-06-20T15:46:11.041Z,2.17
2019-06-20T15:48:43.119Z,2.12
2019-06-20T15:51:15.030Z,2.60
2019-06-20T15:53:47.050Z,2.50
2019-06-20T15:56:20.829Z,2.20
2019-06-20T15:58:52.805Z,2.20
2019-06-20T16:01:24.874Z,2.30
2019-06-20T16:03:57.067Z,1.77
2019-06-20T16:06:29.196Z,1.80
2019-06-20T16:09:01.364Z,2.08
2019-06-20T16:11:34.977Z,2.30
2019-06-20T16:14:07.260Z,1.87
2019-06-20T16:16:39.261Z,1.70
2019-06-20T16:19:11.379Z,1.63
2019-06-20T16:21:43.556Z,1.30
2019-06-20T16:24:15.557Z,1.87
2019-06-20T16:26:47.592Z,1.80
2019-06-20T16:29:19.833Z,1.80
2019-06-20T16:31:51.816Z,1.93
2019-06-20T16:34:23.877Z,1.50
2019-06-20T16:37:09.273Z,1.70
2019-06-20T16:39:29.605Z,2.00
2019-06-20T16:42:01.858Z,2.00
2019-06-20T16:44:33.816Z,1.67
2019-06-20T16:47:05.846Z,1.32
2019-06-20T16:49:38.207Z,1.42
2019-06-20T16:52:10.276Z,1.53
2019-06-20T16:54:42.340Z,1.40
2019-06-20T16:57:14.414Z,1.50
2019-06-20T16:59:46.685Z,1.42
2019-06-20T17:02:18.834Z,4.75
2019-06-20T17:04:51.124Z,1.55
2019-06-20T17:07:23.255Z,1.20
2019-06-20T17:09:55.340Z,1.90
2019-06-20T17:12:27.444Z,1.77
2019-06-20T17:14:59.496Z,2.07
2019-06-20T17:17:31.538Z,1.77
2019-06-20T17:20:05.250Z,1.70
2019-06-20T17:22:37.311Z,2.60
2019-06-20T17:25:09.777Z,3.00
2019-06-20T17:28:00.065Z,3.87
2019-06-20T17:30:32.518Z,3.55
2019-06-20T17:33:04.819Z,3.77
2019-06-20T17:35:37.123Z,3.12
2019-06-20T17:38:09.182Z,2.50
2019-06-20T17:40:42.306Z,3.15
2019-06-20T17:43:14.501Z,3.70
2019-06-20T17:45:46.590Z,14.83
2019-06-20T17:48:18.682Z,6.13
2019-06-20T17:50:50.975Z,5.60
2019-06-20T17:53:23.028Z,7.28
2019-06-20T17:55:55.231Z,7.80
2019-06-20T17:58:27.351Z,11.25
2019-06-20T18:01:00.533Z,25.02
2019-06-20T18:03:33.864Z,30.97
2019-06-20T18:06:06.110Z,23.27
2019-06-20T18:08:38.326Z,18.35
2019-06-20T18:11:10.347Z,14.97
2019-06-20T18:13:42.500Z,13.03
2019-06-20T18:16:24.540Z,11.40
2019-06-20T18:18:48.516Z,12.80
2019-06-20T18:21:20.661Z,12.00
2019-06-20T18:23:52.787Z,9.33
2019-06-20T18:26:25.997Z,6.47
2019-06-20T18:28:58.204Z,4.62
2019-06-20T18:31:30.265Z,4.87
2019-06-20T18:34:02.297Z,4.15
2019-06-20T18:36:34.370Z,4.47
2019-06-20T18:39:08.539Z,4.72
2019-06-20T18:41:40.811Z,4.50
2019-06-20T18:44:12.833Z,4.57
2019-06-20T18:46:45.079Z,5.27
2019-06-20T18:49:17.228Z,5.20
2019-06-20T18:51:49.486Z,4.17
2019-06-20T18:54:21.877Z,4.83
2019-06-20T18:56:54.974Z,4.10
2019-06-20T18:59:27.252Z,4.73
2019-06-20T19:01:59.526Z,4.20
2019-06-20T19:04:45.393Z,4.60
2019-06-20T19:07:05.783Z,5.60
2019-06-20T19:09:37.999Z,9.10
2019-06-20T19:12:10.450Z,11.03
2019-06-20T19:14:43.692Z,7.20
2019-06-20T19:17:15.726Z,8.53
2019-06-20T19:19:48.318Z,7.13
2019-06-20T19:22:21.683Z,6.28
2019-06-20T19:24:53.970Z,4.90
2019-06-20T19:27:26.211Z,7.67
2019-06-20T19:29:58.490Z,4.57
2019-06-20T19:32:30.638Z,3.93
2019-06-20T19:35:02.916Z,5.03
2019-06-20T19:37:35.203Z,4.40
2019-06-20T19:40:09.361Z,4.50
2019-06-20T19:42:41.594Z,4.62
2019-06-20T19:45:15.490Z,6.17
2019-06-20T19:47:47.544Z,5.92
2019-06-20T19:50:19.917Z,6.80
2019-06-20T19:52:52.211Z,6.08
2019-06-20T19:55:24.466Z,4.87
2019-06-20T19:57:56.570Z,4.58
2019-06-20T20:00:28.900Z,4.53
2019-06-20T20:03:01.132Z,5.17
2019-06-20T20:05:33.657Z,5.58
2019-06-20T20:08:06.116Z,5.80
2019-06-20T20:10:46.174Z,7.53
2019-06-20T20:13:19.262Z,6.08
2019-06-20T20:15:51.351Z,5.45
2019-06-20T20:18:23.499Z,4.05
2019-06-20T20:20:55.771Z,4.33
2019-06-20T20:23:28.095Z,4.22
2019-06-20T20:26:00.226Z,4.92
2019-06-20T20:28:32.405Z,4.57
2019-06-20T20:31:04.685Z,4.60
2019-06-20T20:33:36.750Z,4.80
2019-06-20T20:36:23.764Z,4.90
2019-06-20T20:38:42.792Z,4.67
2019-06-20T20:41:15.048Z,4.40
2019-06-20T20:43:47.123Z,4.78
2019-06-20T20:46:19.248Z,5.05
2019-06-20T20:48:51.277Z,4.92
2019-06-20T20:51:23.552Z,4.83
2019-06-20T20:53:56.197Z,3.83
2019-06-20T20:56:28.474Z,4.90
2019-06-20T20:59:00.488Z,5.33
2019-06-20T21:01:35.484Z,4.62
2019-06-20T21:04:06.510Z,5.15
2019-06-20T21:06:38.798Z,5.67
2019-06-20T21:09:11.098Z,5.53
2019-06-20T21:11:43.228Z,5.97
2019-06-20T21:14:15.458Z,5.93
2019-06-20T21:16:47.604Z,5.05
2019-06-20T21:19:19.801Z,11.38
2019-06-20T21:21:52.180Z,5.92
2019-06-20T21:24:25.512Z,4.55
2019-06-20T21:26:57.780Z,5.03
2019-06-20T21:29:29.981Z,5.27
2019-06-20T21:32:02.212Z,4.55
2019-06-20T21:34:34.558Z,4.67
2019-06-20T21:37:06.535Z,3.10
2019-06-20T21:39:39.006Z,3.47
2019-06-20T21:42:11.094Z,4.08
2019-06-20T21:44:43.163Z,4.03
2019-06-20T21:47:15.513Z,3.40
2019-06-20T21:49:47.449Z,3.12
2019-06-20T21:52:19.644Z,3.05
2019-06-20T21:54:51.670Z,3.65
2019-06-20T21:57:23.934Z,4.12
2019-06-20T21:59:56.101Z,3.25
2019-06-20T22:02:28.407Z,3.92
2019-06-20T22:05:00.690Z,4.10
2019-06-20T22:07:32.868Z,3.60
2019-06-20T22:10:07.088Z,3.83
2019-06-20T22:12:39.201Z,4.78
2019-06-20T22:15:11.626Z,4.83
2019-06-20T22:17:43.780Z,6.10
2019-06-20T22:20:17.634Z,6.28
2019-06-20T22:22:50.181Z,8.10
2019-06-20T22:25:24.780Z,5.95
2019-06-20T22:27:57.788Z,5.35
2019-06-20T22:30:44.596Z,6.20
2019-06-20T22:33:16.879Z,6.55
2019-06-20T22:35:49.346Z,6.20
2019-06-20T22:38:21.552Z,6.20
2019-06-20T22:40:53.711Z,4.90
2019-06-20T22:43:26.059Z,4.53
2019-06-20T22:45:58.250Z,5.97
2019-06-20T22:48:30.558Z,5.70
2019-06-20T22:51:02.884Z,4.77
2019-06-20T22:53:35.069Z,5.77
2019-06-20T22:56:07.202Z,7.08
2019-06-20T22:58:39.495Z,9.70
2019-06-20T23:01:11.755Z,8.90
2019-06-20T23:03:44.013Z,10.98
2019-06-20T23:06:16.224Z,11.70
2019-06-20T23:08:48.455Z,8.28
2019-06-20T23:11:20.723Z,9.00
2019-06-20T23:13:52.987Z,9.25
2019-06-20T23:16:25.174Z,10.58
2019-06-20T23:18:58.454Z,7.72
2019-06-20T23:21:30.771Z,7.05
2019-06-20T23:24:03.099Z,6.93
2019-06-20T23:26:35.368Z,6.05
2019-06-20T23:29:22.668Z,5.92
2019-06-20T23:31:55.935Z,5.72
2019-06-20T23:37:12.212Z,7.22
2019-06-20T23:39:33.477Z,7.85
2019-06-20T23:42:05.816Z,7.00
2019-06-20T23:44:38.090Z,7.00
2019-06-20T23:47:10.153Z,6.65
2019-06-20T23:49:42.321Z,7.97
2019-06-20T23:52:16.198Z,8.50
2019-06-20T23:54:48.366Z,9.78
2019-06-20T23:57:20.462Z,8.48
2019-06-20T23:59:52.711Z,7.67
